createdAt,value
2018-07-12T00:01:21.742Z,99.90
2018-07-12T00:03:49.420Z,99.90
2018-07-12T00:06:17.112Z,99.90
2018-07-12T00:08:45.754Z,99.90
2018-07-12T00:11:13.602Z,99.90
2018-07-12T00:13:41.277Z,99.90
2018-07-12T00:16:09.061Z,99.90
2018-07-12T00:18:36.808Z,99.90
2018-07-12T00:21:04.516Z,99.90
2018-07-12T00:23:32.222Z,99.90
2018-07-12T00:26:00.084Z,99.90
2018-07-12T00:28:27.783Z,99.90
2018-07-12T00:30:55.467Z,99.90
2018-07-12T00:35:51.020Z,99.90
2018-07-12T00:38:18.724Z,99.50
2018-07-12T00:40:46.418Z,99.50
2018-07-12T00:43:14.124Z,99.50
2018-07-12T00:45:42.838Z,99.70
2018-07-12T00:48:10.528Z,99.30
2018-07-12T00:50:38.218Z,99.50
2018-07-12T00:53:05.940Z,99.40
2018-07-12T00:58:11.961Z,99.30
2018-07-12T01:00:40.596Z,99.30
2018-07-12T01:03:08.352Z,98.90
2018-07-12T01:05:36.112Z,98.90
2018-07-12T01:08:03.869Z,98.90
2018-07-12T01:10:31.548Z,98.80
2018-07-12T01:12:59.308Z,98.90
2018-07-12T01:15:26.988Z,98.50
2018-07-12T01:17:54.732Z,98.50
2018-07-12T01:20:22.423Z,98.60
2018-07-12T01:22:50.120Z,98.90
2018-07-12T01:25:17.835Z,98.50
2018-07-12T01:27:45.564Z,98.30
2018-07-12T01:30:13.354Z,98.40
2018-07-12T01:32:41.436Z,98.70
2018-07-12T01:35:09.129Z,98.70
2018-07-12T01:37:36.853Z,98.70
2018-07-12T01:40:04.519Z,98.40
2018-07-12T01:42:32.208Z,98.50
2018-07-12T01:44:59.921Z,98.80
2018-07-12T01:47:27.908Z,98.70
2018-07-12T01:49:55.650Z,98.70
2018-07-12T01:52:23.371Z,98.80
2018-07-12T01:54:51.055Z,98.30
2018-07-12T01:57:18.761Z,99.00
2018-07-12T01:59:46.692Z,99.20
2018-07-12T02:02:14.400Z,99.10
2018-07-12T02:04:42.093Z,99.30
2018-07-12T02:07:10.128Z,99.20
2018-07-12T02:09:37.895Z,99.20
2018-07-12T02:12:05.643Z,99.00
2018-07-12T02:14:33.425Z,99.50
2018-07-12T02:17:01.115Z,99.20
2018-07-12T02:19:28.802Z,99.40
2018-07-12T02:21:56.496Z,99.70
2018-07-12T02:24:24.279Z,99.20
2018-07-12T02:26:52.042Z,99.60
2018-07-12T02:29:19.785Z,99.40
2018-07-12T02:31:47.484Z,99.70
2018-07-12T02:34:15.176Z,99.80
2018-07-12T02:36:42.898Z,99.70
2018-07-12T02:39:10.638Z,99.50
2018-07-12T02:41:38.427Z,99.90
2018-07-12T02:44:06.124Z,99.90
2018-07-12T02:46:33.810Z,99.90
2018-07-12T02:49:01.513Z,99.60
2018-07-12T02:51:29.204Z,99.90
2018-07-12T02:56:24.810Z,99.40
2018-07-12T02:58:52.576Z,99.50
2018-07-12T03:01:20.344Z,99.50
2018-07-12T03:03:48.057Z,99.20
2018-07-12T03:06:15.749Z,98.90
2018-07-12T03:08:43.455Z,99.60
2018-07-12T03:11:11.139Z,99.10
2018-07-12T03:13:39.008Z,99.40
2018-07-12T03:16:06.711Z,99.30
2018-07-12T03:18:34.795Z,98.90
2018-07-12T03:21:02.560Z,99.10
2018-07-12T03:25:58.219Z,99.50
2018-07-12T03:28:25.887Z,99.60
2018-07-12T03:30:53.576Z,99.90
2018-07-12T03:33:21.261Z,99.90
2018-07-12T03:35:48.976Z,99.90
2018-07-12T03:38:16.652Z,99.80
2018-07-12T03:40:44.368Z,99.90
2018-07-12T03:43:12.113Z,99.90
2018-07-12T03:45:39.900Z,99.90
2018-07-12T03:48:07.660Z,99.90
2018-07-12T03:50:35.423Z,99.90
2018-07-12T03:53:03.169Z,99.90
2018-07-12T03:55:30.876Z,99.90
2018-07-12T03:57:58.635Z,99.90
2018-07-12T04:00:26.488Z,99.90
2018-07-12T04:02:54.140Z,99.90
2018-07-12T04:05:21.828Z,99.90
2018-07-12T04:07:49.532Z,99.90
2018-07-12T04:10:17.241Z,99.90
2018-07-12T04:12:45.006Z,99.90
2018-07-12T04:15:12.668Z,99.90
2018-07-12T04:17:40.360Z,99.90
2018-07-12T04:20:08.065Z,99.90
2018-07-12T04:22:36.404Z,99.90
2018-07-12T04:25:04.117Z,99.90
2018-07-12T04:27:31.807Z,99.90
2018-07-12T04:30:00.218Z,99.60
2018-07-12T04:32:28.929Z,99.70
2018-07-12T04:34:56.618Z,99.60
2018-07-12T04:37:24.327Z,99.00
2018-07-12T04:39:52.013Z,98.50
2018-07-12T04:42:19.723Z,98.60
2018-07-12T04:44:47.412Z,98.40
2018-07-12T04:47:15.121Z,98.30
2018-07-12T04:49:42.817Z,98.50
2018-07-12T04:52:10.571Z,99.00
2018-07-12T04:54:38.252Z,99.10
2018-07-12T04:57:05.988Z,99.40
2018-07-12T04:59:33.761Z,99.10
2018-07-12T05:04:29.498Z,99.20
2018-07-12T05:09:25.230Z,99.40
2018-07-12T05:11:53.203Z,99.80
2018-07-12T05:14:20.900Z,99.70
2018-07-12T05:16:48.600Z,99.50
2018-07-12T05:19:16.509Z,99.90
2018-07-12T05:21:44.247Z,99.90
2018-07-12T05:24:12.748Z,99.90
2018-07-12T05:26:40.451Z,99.90
2018-07-12T05:29:08.144Z,99.90
2018-07-12T05:31:35.920Z,99.90
2018-07-12T05:37:05.051Z,99.90
2018-07-12T05:39:33.758Z,99.90
2018-07-12T05:44:30.848Z,98.30
2018-07-12T05:46:59.492Z,97.10
2018-07-12T05:49:28.399Z,97.10
2018-07-12T05:54:25.824Z,96.30
2018-07-12T05:56:54.851Z,96.20
2018-07-12T05:59:24.056Z,96.40
2018-07-12T06:02:04.539Z,95.90
2018-07-12T06:04:33.452Z,95.40
2018-07-12T06:07:02.344Z,95.80
2018-07-12T06:09:31.227Z,95.60
2018-07-12T06:12:00.131Z,96.20
2018-07-12T06:14:29.037Z,96.90
2018-07-12T06:16:57.930Z,97.30
2018-07-12T06:19:26.788Z,97.80
2018-07-12T06:21:55.712Z,98.10
2018-07-12T06:24:24.623Z,99.60
2018-07-12T06:26:53.740Z,99.90
2018-07-12T06:29:22.620Z,99.90
2018-07-12T06:35:01.701Z,99.90
2018-07-12T06:37:30.607Z,99.90
2018-07-12T06:39:59.479Z,99.90
2018-07-12T06:42:28.424Z,99.90
2018-07-12T06:44:57.268Z,99.90
2018-07-12T06:47:26.268Z,99.90
2018-07-12T06:49:55.164Z,99.90
2018-07-12T06:52:24.073Z,99.90
2018-07-12T06:54:52.956Z,99.90
2018-07-12T06:57:22.893Z,99.90
2018-07-12T06:59:51.769Z,99.90
2018-07-12T07:02:20.677Z,99.90
2018-07-12T07:04:49.568Z,99.90
2018-07-12T07:07:18.472Z,99.90
2018-07-12T07:09:48.378Z,99.90
2018-07-12T07:12:17.267Z,99.90
2018-07-12T07:14:46.166Z,99.90
2018-07-12T07:17:16.080Z,99.90
2018-07-12T07:19:44.952Z,99.90
2018-07-12T07:22:13.832Z,99.90
2018-07-12T07:24:42.747Z,99.90
2018-07-12T07:27:11.617Z,99.90
2018-07-12T07:29:40.530Z,99.90
2018-07-12T07:32:09.395Z,99.90
2018-07-12T07:34:38.272Z,99.90
2018-07-12T07:37:07.157Z,99.90
2018-07-12T07:39:36.096Z,99.90
2018-07-12T07:42:05.108Z,99.90
2018-07-12T07:44:33.984Z,99.90
2018-07-12T07:47:02.856Z,99.90
2018-07-12T07:49:31.768Z,99.90
2018-07-12T07:52:00.672Z,99.90
2018-07-12T07:54:29.558Z,99.90
2018-07-12T07:56:58.483Z,99.90
2018-07-12T07:59:27.331Z,99.90
2018-07-12T08:01:56.204Z,99.90
2018-07-12T08:04:25.114Z,99.90
2018-07-12T08:06:54.020Z,99.90
2018-07-12T08:09:22.924Z,99.90
2018-07-12T08:11:51.856Z,99.90
2018-07-12T08:14:20.760Z,99.90
2018-07-12T08:16:49.667Z,99.90
2018-07-12T08:19:18.557Z,99.90
2018-07-12T08:21:47.431Z,99.90
2018-07-12T08:24:16.606Z,99.90
2018-07-12T08:26:45.508Z,99.90
2018-07-12T08:29:14.384Z,99.90
2018-07-12T08:31:43.276Z,99.90
2018-07-12T08:34:12.155Z,99.10
2018-07-12T08:36:41.068Z,97.10
2018-07-12T08:39:09.947Z,93.30
2018-07-12T08:41:38.825Z,92.80
2018-07-12T08:44:07.704Z,92.80
2018-07-12T08:46:36.618Z,90.70
2018-07-12T08:49:05.629Z,89.10
2018-07-12T08:51:34.520Z,88.10
2018-07-12T08:54:03.696Z,86.40
2018-07-12T08:56:32.584Z,85.20
2018-07-12T08:59:01.476Z,82.60
2018-07-12T09:01:30.353Z,81.10
2018-07-12T09:03:59.255Z,80.40
2018-07-12T09:06:28.136Z,83.80
2018-07-12T09:08:57.041Z,85.70
2018-07-12T09:11:25.944Z,86.30
2018-07-12T09:13:54.842Z,86.80
2018-07-12T09:16:24.752Z,89.00
2018-07-12T09:18:54.652Z,88.40
2018-07-12T09:21:23.561Z,88.20
2018-07-12T09:23:52.456Z,87.00
2018-07-12T09:26:21.335Z,89.70
2018-07-12T09:28:50.252Z,91.30
2018-07-12T09:31:19.204Z,91.80
2018-07-12T09:33:49.328Z,91.50
2018-07-12T09:36:18.241Z,91.00
2018-07-12T09:38:50.201Z,82.70
2018-07-12T09:41:20.072Z,82.90
2018-07-12T09:43:49.496Z,79.80
2018-07-12T09:46:18.456Z,81.00
2018-07-12T09:48:49.555Z,80.00
2018-07-12T09:51:18.472Z,78.50
2018-07-12T09:53:47.868Z,80.90
2018-07-12T09:56:16.907Z,84.90
2018-07-12T09:58:45.648Z,84.50
2018-07-12T10:01:19.886Z,85.60
2018-07-12T10:03:53.496Z,83.30
2018-07-12T10:06:27.792Z,83.70
2018-07-12T10:08:59.747Z,80.30
2018-07-12T10:11:33.896Z,79.60
2018-07-12T10:14:08.188Z,79.30
2018-07-12T10:16:42.648Z,74.20
2018-07-12T10:19:11.528Z,78.50
2018-07-12T10:21:40.424Z,79.60
2018-07-12T10:24:09.322Z,81.30
2018-07-12T10:26:38.213Z,79.60
2018-07-12T10:29:07.112Z,79.00
2018-07-12T10:31:36.024Z,80.30
2018-07-12T10:34:04.903Z,80.50
2018-07-12T10:36:33.861Z,81.70
2018-07-12T10:39:02.751Z,83.10
2018-07-12T10:41:31.580Z,80.70
2018-07-12T10:44:00.473Z,82.60
2018-07-12T10:46:29.364Z,83.40
2018-07-12T10:48:58.453Z,81.40
2018-07-12T10:51:27.349Z,82.50
2018-07-12T10:53:56.225Z,82.00
2018-07-12T10:56:25.113Z,81.30
2018-07-12T10:58:54.065Z,80.20
2018-07-12T11:01:22.919Z,80.90
2018-07-12T11:03:51.884Z,80.00
2018-07-12T11:06:20.712Z,81.20
2018-07-12T11:08:49.719Z,80.50
2018-07-12T11:11:18.676Z,83.90
2018-07-12T11:13:49.379Z,83.80
2018-07-12T11:16:18.322Z,86.40
2018-07-12T11:18:47.198Z,87.20
2018-07-12T11:21:16.211Z,88.50
2018-07-12T11:23:44.972Z,89.10
2018-07-12T11:26:13.915Z,90.00
2018-07-12T11:28:43.459Z,89.90
2018-07-12T11:31:12.348Z,90.00
2018-07-12T11:33:42.413Z,87.10
2018-07-12T11:36:11.344Z,88.80
2018-07-12T11:38:41.523Z,82.70
2018-07-12T11:41:10.822Z,84.40
2018-07-12T11:43:39.692Z,83.90
2018-07-12T11:46:10.653Z,81.90
2018-07-12T11:48:40.571Z,81.20
2018-07-12T11:51:09.467Z,80.00
2018-07-12T11:53:38.433Z,82.60
2018-07-12T11:56:07.361Z,84.70
2018-07-12T11:58:36.298Z,85.10
2018-07-12T12:01:05.188Z,84.00
2018-07-12T12:03:34.064Z,83.80
2018-07-12T12:06:02.972Z,83.20
2018-07-12T12:08:31.860Z,84.10
2018-07-12T12:13:29.288Z,86.80
2018-07-12T12:15:58.167Z,87.20
2018-07-12T12:18:28.075Z,86.10
2018-07-12T12:20:57.001Z,87.40
2018-07-12T12:23:25.876Z,87.70
2018-07-12T12:25:54.771Z,87.60
2018-07-12T12:28:23.645Z,88.70
2018-07-12T12:30:52.583Z,87.70
2018-07-12T12:33:21.422Z,86.60
2018-07-12T12:35:50.296Z,86.10
2018-07-12T12:38:19.196Z,82.70
2018-07-12T12:40:48.095Z,84.50
2018-07-12T12:43:16.972Z,84.10
2018-07-12T12:45:45.880Z,81.60
2018-07-12T12:48:14.756Z,81.80
2018-07-12T12:50:43.661Z,80.50
2018-07-12T12:53:12.568Z,81.30
2018-07-12T12:55:41.436Z,80.60
2018-07-12T12:58:10.332Z,78.80
2018-07-12T13:00:39.204Z,81.50
2018-07-12T13:03:08.100Z,82.60
2018-07-12T13:05:36.991Z,83.10
2018-07-12T13:08:05.885Z,82.50
2018-07-12T13:10:34.754Z,80.50
2018-07-12T13:13:03.652Z,79.20
2018-07-12T13:15:32.537Z,81.90
2018-07-12T13:18:01.429Z,78.50
2018-07-12T13:20:30.311Z,77.90
2018-07-12T13:22:59.199Z,77.20
2018-07-12T13:25:28.139Z,76.00
2018-07-12T13:27:57.005Z,77.60
2018-07-12T13:30:25.910Z,78.40
2018-07-12T13:32:54.800Z,80.60
2018-07-12T13:35:23.697Z,82.50
2018-07-12T13:37:52.559Z,81.10
2018-07-12T13:40:21.460Z,84.20
2018-07-12T13:45:18.914Z,81.20
2018-07-12T13:47:47.801Z,81.80
2018-07-12T13:50:16.664Z,82.90
2018-07-12T13:52:45.536Z,81.80
2018-07-12T13:55:14.517Z,78.90
2018-07-12T13:57:43.404Z,78.40
2018-07-12T14:00:12.532Z,76.60
2018-07-12T14:02:41.428Z,75.80
2018-07-12T14:05:10.371Z,75.40
2018-07-12T14:10:08.232Z,80.30
2018-07-12T14:12:38.088Z,79.40
2018-07-12T14:15:06.984Z,81.30
2018-07-12T14:17:35.860Z,79.60
2018-07-12T14:20:04.780Z,80.60
2018-07-12T14:22:33.660Z,80.50
2018-07-12T14:25:02.543Z,80.30
2018-07-12T14:27:31.904Z,81.30
2018-07-12T14:30:00.768Z,81.10
2018-07-12T14:32:29.659Z,81.10
2018-07-12T14:34:59.392Z,81.60
2018-07-12T14:37:28.285Z,81.00
2018-07-12T14:39:57.188Z,79.80
2018-07-12T14:42:26.079Z,81.10
2018-07-12T14:44:54.984Z,82.10
2018-07-12T14:47:23.883Z,85.10
2018-07-12T14:49:52.788Z,83.90
2018-07-12T14:52:21.684Z,83.70
2018-07-12T14:54:50.593Z,84.10
2018-07-12T14:57:19.456Z,84.50
2018-07-12T14:59:48.356Z,84.90
2018-07-12T15:02:17.328Z,85.50
2018-07-12T15:04:46.232Z,83.80
2018-07-12T15:07:15.122Z,84.00
2018-07-12T15:09:44.012Z,82.40
2018-07-12T15:12:12.887Z,82.80
2018-07-12T15:14:41.806Z,81.50
2018-07-12T15:17:10.667Z,81.80
2018-07-12T15:19:39.568Z,79.20
2018-07-12T15:22:08.826Z,81.00
2018-07-12T15:24:37.704Z,80.30
2018-07-12T15:27:06.601Z,80.10
2018-07-12T15:29:35.523Z,80.00
2018-07-12T15:32:04.348Z,81.70
2018-07-12T15:34:33.252Z,82.30
2018-07-12T15:37:02.232Z,82.90
2018-07-12T15:39:31.070Z,83.70
2018-07-12T15:41:59.971Z,84.80
2018-07-12T15:44:28.884Z,84.00
2018-07-12T15:46:57.788Z,84.80
2018-07-12T15:49:26.684Z,83.90
2018-07-12T15:51:55.580Z,85.30
2018-07-12T15:54:24.475Z,83.00
2018-07-12T15:56:53.628Z,83.80
2018-07-12T15:59:22.520Z,84.50
2018-07-12T16:01:51.420Z,86.30
2018-07-12T16:04:20.317Z,83.40
2018-07-12T16:06:49.260Z,82.10
2018-07-12T16:09:18.156Z,83.20
2018-07-12T16:11:47.048Z,81.40
2018-07-12T16:14:15.927Z,80.90
2018-07-12T16:16:44.824Z,79.30
2018-07-12T16:19:13.733Z,79.40
2018-07-12T16:21:42.591Z,78.20
2018-07-12T16:24:11.760Z,80.00
2018-07-12T16:26:40.623Z,78.50
2018-07-12T16:29:09.489Z,78.50
2018-07-12T16:31:38.397Z,77.60
2018-07-12T16:34:07.486Z,77.50
2018-07-12T16:36:36.316Z,79.10
2018-07-12T16:39:09.381Z,78.10
2018-07-12T16:41:38.307Z,77.80
2018-07-12T16:44:08.047Z,78.10
2018-07-12T16:46:36.939Z,78.20
2018-07-12T16:49:05.832Z,79.20
2018-07-12T16:51:34.704Z,78.20
2018-07-12T16:54:03.644Z,77.70
2018-07-12T16:56:32.529Z,77.80
2018-07-12T16:59:01.452Z,78.00
2018-07-12T19:54:34.323Z,90.20
2018-07-12T19:57:03.210Z,90.70
2018-07-12T19:59:32.092Z,90.90
2018-07-12T20:02:00.976Z,90.90
2018-07-12T20:04:29.841Z,91.00
2018-07-12T20:07:00.724Z,91.20
2018-07-12T20:09:29.605Z,91.50
2018-07-12T20:11:58.488Z,92.00
2018-07-12T20:14:27.385Z,91.90
2018-07-12T20:16:56.247Z,92.20
2018-07-12T20:19:25.138Z,92.40
2018-07-12T20:21:54.029Z,92.50
2018-07-12T20:24:22.895Z,92.60
2018-07-12T20:26:51.770Z,92.70
2018-07-12T20:29:20.643Z,92.70
2018-07-12T20:31:49.544Z,92.80
2018-07-12T20:34:19.636Z,93.20
2018-07-12T20:36:48.519Z,93.30
2018-07-12T20:39:17.393Z,93.60
2018-07-12T20:41:46.384Z,93.70
2018-07-12T20:44:15.195Z,93.80
2018-07-12T20:49:12.656Z,94.50
2018-07-12T20:54:10.153Z,94.90
2018-07-12T20:56:39.019Z,94.90
2018-07-12T20:59:07.918Z,95.00
2018-07-12T21:01:36.795Z,95.00
2018-07-12T21:04:05.726Z,95.00
2018-07-12T21:06:34.586Z,95.20
2018-07-12T21:09:04.900Z,95.30
2018-07-12T21:11:33.775Z,95.40
2018-07-12T21:14:02.659Z,95.70
2018-07-12T21:16:31.574Z,95.70
2018-07-12T21:19:00.403Z,95.90
2018-07-12T21:21:29.270Z,95.80
2018-07-12T21:23:58.249Z,95.90
2018-07-12T21:26:27.095Z,96.00
2018-07-12T21:28:56.029Z,96.10
2018-07-12T21:31:24.920Z,96.10
2018-07-12T21:33:53.752Z,96.30
2018-07-12T21:36:22.635Z,96.20
2018-07-12T21:38:51.594Z,96.50
2018-07-12T21:41:20.586Z,96.70
2018-07-12T21:43:49.477Z,96.70
2018-07-12T21:46:18.391Z,96.80
2018-07-12T21:48:47.273Z,96.90
2018-07-12T21:51:16.135Z,96.90
2018-07-12T21:53:45.452Z,97.10
2018-07-12T21:56:14.266Z,97.30
2018-07-12T21:58:43.154Z,97.20
2018-07-12T22:01:12.040Z,97.60
2018-07-12T22:03:41.020Z,97.80
2018-07-12T22:06:09.843Z,97.80
2018-07-12T22:08:38.798Z,97.90
2018-07-12T22:11:07.667Z,97.80
2018-07-12T22:13:37.505Z,97.80
2018-07-12T22:16:06.323Z,98.00
2018-07-12T22:18:35.183Z,98.00
2018-07-12T22:21:04.077Z,98.00
2018-07-12T22:23:32.929Z,98.30
2018-07-12T22:26:01.828Z,98.50
2018-07-12T22:28:30.667Z,98.80
2018-07-12T22:30:59.636Z,98.60
2018-07-12T22:33:28.451Z,98.70
2018-07-12T22:35:57.335Z,99.00
2018-07-12T22:38:26.205Z,99.10
2018-07-12T22:40:55.079Z,99.40
2018-07-12T22:43:23.989Z,99.40
2018-07-12T22:45:52.828Z,99.70
2018-07-12T22:48:22.091Z,99.90
2018-07-12T22:50:50.655Z,99.90
2018-07-12T22:53:19.553Z,99.90
2018-07-12T22:55:48.399Z,99.90
2018-07-12T22:58:17.279Z,99.90
2018-07-12T23:00:46.151Z,99.90
2018-07-12T23:03:15.015Z,99.90
2018-07-12T23:05:43.923Z,99.90
2018-07-12T23:08:12.788Z,99.90
2018-07-12T23:10:41.651Z,99.90
2018-07-12T23:13:10.585Z,99.90
2018-07-12T23:15:39.400Z,99.90
2018-07-12T23:18:08.270Z,99.90
2018-07-12T23:20:37.128Z,99.90
2018-07-12T23:23:06.042Z,99.90
2018-07-12T23:28:34.211Z,99.90
2018-07-12T23:31:03.126Z,99.90
2018-07-12T23:33:31.929Z,99.90
2018-07-12T23:36:00.791Z,99.90
2018-07-12T23:38:29.629Z,99.90
2018-07-12T23:40:58.488Z,99.90
2018-07-12T23:43:27.309Z,99.90
2018-07-12T23:45:56.133Z,99.90
2018-07-12T23:48:25.055Z,99.90
2018-07-12T23:50:53.857Z,99.90
2018-07-12T23:53:22.701Z,99.90
2018-07-12T23:55:51.552Z,99.90
2018-07-12T23:58:20.413Z,99.90
